sensor_id;sensor_type;location;lat;lon;timestamp;pressure;altitude;pressure_sealevel;temperature;humidity
72038;BME280;59900;50.788;12.904;2024-03-07T00:00:34;98177.34;;;4.20;80.97
72038;BME280;59900;50.788;12.904;2024-03-07T00:03:00;98178.94;;;4.21;80.93
72038;BME280;59900;50.788;12.904;2024-03-07T00:05:25;98174.72;;;4.20;81.40
72038;BME280;59900;50.788;12.904;2024-03-07T00:07:52;98174.56;;;4.21;80.81
72038;BME280;59900;50.788;12.904;2024-03-07T00:10:17;98169.38;;;4.21;81.07
72038;BME280;59900;50.788;12.904;2024-03-07T00:12:43;98172.78;;;4.22;82.90
72038;BME280;59900;50.788;12.904;2024-03-07T00:15:12;98167.72;;;4.20;82.57
72038;BME280;59900;50.788;12.904;2024-03-07T00:17:38;98171.16;;;4.21;81.62
72038;BME280;59900;50.788;12.904;2024-03-07T00:20:04;98172.13;;;4.20;81.20
72038;BME280;59900;50.788;12.904;2024-03-07T00:22:33;98180.72;;;4.20;82.35
72038;BME280;59900;50.788;12.904;2024-03-07T00:24:59;98169.53;;;4.20;81.27
72038;BME280;59900;50.788;12.904;2024-03-07T00:27:24;98177.03;;;4.23;82.60
72038;BME280;59900;50.788;12.904;2024-03-07T00:29:51;98172.66;;;4.23;81.87
72038;BME280;59900;50.788;12.904;2024-03-07T00:32:20;98168.41;;;4.22;82.11
72038;BME280;59900;50.788;12.904;2024-03-07T00:34:45;98169.22;;;4.23;81.26
72038;BME280;59900;50.788;12.904;2024-03-07T00:37:10;98171.31;;;4.19;80.84
72038;BME280;59900;50.788;12.904;2024-03-07T00:39:36;98175.53;;;4.20;81.75
72038;BME280;59900;50.788;12.904;2024-03-07T00:42:01;98165.94;;;4.21;81.92
72038;BME280;59900;50.788;12.904;2024-03-07T00:44:27;98166.78;;;4.21;81.36
72038;BME280;59900;50.788;12.904;2024-03-07T00:46:52;98159.78;;;4.22;80.99
72038;BME280;59900;50.788;12.904;2024-03-07T00:49:17;98158.03;;;4.22;81.76
72038;BME280;59900;50.788;12.904;2024-03-07T00:51:43;98158.81;;;4.23;81.28
72038;BME280;59900;50.788;12.904;2024-03-07T00:54:09;98160.47;;;4.24;81.30
72038;BME280;59900;50.788;12.904;2024-03-07T00:56:37;98164.00;;;4.23;81.23
72038;BME280;59900;50.788;12.904;2024-03-07T00:59:03;98154.31;;;4.25;81.36
72038;BME280;59900;50.788;12.904;2024-03-07T01:01:28;98156.09;;;4.24;81.22
72038;BME280;59900;50.788;12.904;2024-03-07T01:03:54;98158.69;;;4.24;81.61
72038;BME280;59900;50.788;12.904;2024-03-07T01:06:19;98155.13;;;4.25;82.30
72038;BME280;59900;50.788;12.904;2024-03-07T01:08:45;98147.16;;;4.27;82.01
72038;BME280;59900;50.788;12.904;2024-03-07T01:11:10;98149.66;;;4.28;81.58
72038;BME280;59900;50.788;12.904;2024-03-07T01:13:40;98152.09;;;4.30;81.85
72038;BME280;59900;50.788;12.904;2024-03-07T01:16:06;98147.84;;;4.29;81.42
72038;BME280;59900;50.788;12.904;2024-03-07T01:18:31;98148.00;;;4.27;81.47
72038;BME280;59900;50.788;12.904;2024-03-07T01:20:59;98143.75;;;4.26;81.93
72038;BME280;59900;50.788;12.904;2024-03-07T01:23:24;98144.03;;;4.23;81.93
72038;BME280;59900;50.788;12.904;2024-03-07T01:25:49;98141.47;;;4.14;81.56
72038;BME280;59900;50.788;12.904;2024-03-07T01:28:14;98141.59;;;4.12;82.35
72038;BME280;59900;50.788;12.904;2024-03-07T01:30:42;98144.06;;;4.14;83.28
72038;BME280;59900;50.788;12.904;2024-03-07T01:33:07;98149.13;;;4.15;84.09
72038;BME280;59900;50.788;12.904;2024-03-07T01:35:33;98150.63;;;4.18;84.44
72038;BME280;59900;50.788;12.904;2024-03-07T01:37:58;98149.00;;;4.17;84.05
72038;BME280;59900;50.788;12.904;2024-03-07T01:40:23;98143.63;;;4.18;84.94
72038;BME280;59900;50.788;12.904;2024-03-07T01:42:49;98153.09;;;4.19;85.72
72038;BME280;59900;50.788;12.904;2024-03-07T01:45:15;98146.13;;;4.20;85.36
72038;BME280;59900;50.788;12.904;2024-03-07T01:47:40;98144.19;;;4.22;85.85
72038;BME280;59900;50.788;12.904;2024-03-07T01:50:07;98151.00;;;4.23;86.21
72038;BME280;59900;50.788;12.904;2024-03-07T01:52:32;98142.13;;;4.25;86.33
72038;BME280;59900;50.788;12.904;2024-03-07T01:54:58;98144.84;;;4.24;86.36
72038;BME280;59900;50.788;12.904;2024-03-07T01:57:23;98140.75;;;4.21;86.49
72038;BME280;59900;50.788;12.904;2024-03-07T01:59:49;98147.06;;;4.19;86.05
72038;BME280;59900;50.788;12.904;2024-03-07T02:02:15;98140.38;;;4.07;85.52
72038;BME280;59900;50.788;12.904;2024-03-07T02:04:41;98133.25;;;4.09;86.65
72038;BME280;59900;50.788;12.904;2024-03-07T02:07:06;98137.34;;;4.11;87.82
72038;BME280;59900;50.788;12.904;2024-03-07T02:09:31;98130.25;;;4.13;87.98
72038;BME280;59900;50.788;12.904;2024-03-07T02:11:56;98127.50;;;4.15;88.48
72038;BME280;59900;50.788;12.904;2024-03-07T02:14:22;98132.84;;;4.13;88.42
72038;BME280;59900;50.788;12.904;2024-03-07T02:16:47;98127.78;;;4.12;88.85
72038;BME280;59900;50.788;12.904;2024-03-07T02:19:14;98126.94;;;4.11;89.38
72038;BME280;59900;50.788;12.904;2024-03-07T02:21:41;98122.19;;;4.07;90.18
72038;BME280;59900;50.788;12.904;2024-03-07T02:24:06;98113.44;;;4.08;90.76
72038;BME280;59900;50.788;12.904;2024-03-07T02:26:31;98121.22;;;4.08;90.89
72038;BME280;59900;50.788;12.904;2024-03-07T02:28:56;98117.25;;;4.04;91.19
72038;BME280;59900;50.788;12.904;2024-03-07T02:31:22;98120.97;;;4.01;91.63
72038;BME280;59900;50.788;12.904;2024-03-07T02:34:00;98114.94;;;4.01;92.62
72038;BME280;59900;50.788;12.904;2024-03-07T02:36:26;98120.97;;;4.01;93.08
72038;BME280;59900;50.788;12.904;2024-03-07T02:38:51;98119.31;;;4.00;93.64
72038;BME280;59900;50.788;12.904;2024-03-07T02:41:17;98115.88;;;4.00;94.48
72038;BME280;59900;50.788;12.904;2024-03-07T02:43:42;98111.94;;;3.95;94.37
72038;BME280;59900;50.788;12.904;2024-03-07T02:46:07;98105.09;;;3.94;94.71
72038;BME280;59900;50.788;12.904;2024-03-07T02:48:32;98103.44;;;3.93;94.68
72038;BME280;59900;50.788;12.904;2024-03-07T02:50:58;98101.00;;;3.92;94.91
72038;BME280;59900;50.788;12.904;2024-03-07T02:53:24;98104.56;;;3.91;95.01
72038;BME280;59900;50.788;12.904;2024-03-07T02:55:49;98104.56;;;3.91;95.53
72038;BME280;59900;50.788;12.904;2024-03-07T02:58:14;98107.16;;;3.91;95.77
72038;BME280;59900;50.788;12.904;2024-03-07T03:00:41;98108.13;;;3.90;95.90
72038;BME280;59900;50.788;12.904;2024-03-07T03:03:06;98112.50;;;3.89;96.04
72038;BME280;59900;50.788;12.904;2024-03-07T03:05:31;98095.81;;;3.92;96.29
72038;BME280;59900;50.788;12.904;2024-03-07T03:07:57;98097.44;;;3.93;97.32
72038;BME280;59900;50.788;12.904;2024-03-07T03:10:23;98102.66;;;3.93;96.70
72038;BME280;59900;50.788;12.904;2024-03-07T03:12:54;98105.09;;;3.94;96.70
72038;BME280;59900;50.788;12.904;2024-03-07T03:15:21;98097.28;;;3.94;97.51
72038;BME280;59900;50.788;12.904;2024-03-07T03:17:47;98097.44;;;3.93;97.12
72038;BME280;59900;50.788;12.904;2024-03-07T03:20:13;98102.94;;;3.90;97.19
72038;BME280;59900;50.788;12.904;2024-03-07T03:22:52;98101.94;;;3.91;97.33
72038;BME280;59900;50.788;12.904;2024-03-07T03:25:18;98101.81;;;3.92;96.96
72038;BME280;59900;50.788;12.904;2024-03-07T03:27:45;98098.53;;;3.90;96.64
72038;BME280;59900;50.788;12.904;2024-03-07T03:30:10;98102.78;;;3.91;96.80
72038;BME280;59900;50.788;12.904;2024-03-07T03:32:39;98099.63;;;3.88;96.97
72038;BME280;59900;50.788;12.904;2024-03-07T03:35:05;98097.03;;;3.88;97.41
72038;BME280;59900;50.788;12.904;2024-03-07T03:37:30;98099.78;;;3.86;97.90
72038;BME280;59900;50.788;12.904;2024-03-07T03:39:55;98097.47;;;3.83;98.03
72038;BME280;59900;50.788;12.904;2024-03-07T03:42:21;98096.38;;;3.86;98.15
72038;BME280;59900;50.788;12.904;2024-03-07T03:44:46;98104.31;;;3.84;98.38
72038;BME280;59900;50.788;12.904;2024-03-07T03:47:12;98088.84;;;3.83;98.58
72038;BME280;59900;50.788;12.904;2024-03-07T03:49:37;98093.91;;;3.84;98.96
72038;BME280;59900;50.788;12.904;2024-03-07T03:52:02;98087.91;;;3.84;99.13
72038;BME280;59900;50.788;12.904;2024-03-07T03:54:27;98095.00;;;3.82;99.48
72038;BME280;59900;50.788;12.904;2024-03-07T03:56:53;98095.00;;;3.82;99.36
72038;BME280;59900;50.788;12.904;2024-03-07T03:59:18;98092.38;;;3.82;99.71
72038;BME280;59900;50.788;12.904;2024-03-07T04:01:43;98094.03;;;3.83;99.99
72038;BME280;59900;50.788;12.904;2024-03-07T04:04:10;98097.47;;;3.83;100.00
72038;BME280;59900;50.788;12.904;2024-03-07T04:06:35;98092.94;;;3.85;100.00
72038;BME280;59900;50.788;12.904;2024-03-07T04:09:00;98092.94;;;3.85;100.00
72038;BME280;59900;50.788;12.904;2024-03-07T04:11:26;98098.13;;;3.85;100.00
72038;BME280;59900;50.788;12.904;2024-03-07T04:13:51;98098.97;;;3.86;100.00
72038;BME280;59900;50.788;12.904;2024-03-07T04:16:17;98091.16;;;3.86;100.00
72038;BME280;59900;50.788;12.904;2024-03-07T04:18:42;98099.63;;;3.88;100.00
72038;BME280;59900;50.788;12.904;2024-03-07T04:21:07;98092.81;;;3.87;100.00
72038;BME280;59900;50.788;12.904;2024-03-07T04:23:34;98092.13;;;3.85;100.00
72038;BME280;59900;50.788;12.904;2024-03-07T04:25:59;98086.81;;;3.77;100.00
72038;BME280;59900;50.788;12.904;2024-03-07T04:28:25;98090.78;;;3.71;100.00
72038;BME280;59900;50.788;12.904;2024-03-07T04:30:50;98081.88;;;3.64;100.00
72038;BME280;59900;50.788;12.904;2024-03-07T04:33:15;98083.16;;;3.60;100.00
72038;BME280;59900;50.788;12.904;2024-03-07T04:35:40;98081.22;;;3.62;100.00
72038;BME280;59900;50.788;12.904;2024-03-07T04:38:06;98086.81;;;3.67;100.00
72038;BME280;59900;50.788;12.904;2024-03-07T04:40:36;98080.38;;;3.71;100.00
72038;BME280;59900;50.788;12.904;2024-03-07T04:43:01;98081.22;;;3.72;100.00
72038;BME280;59900;50.788;12.904;2024-03-07T04:45:27;98083.66;;;3.73;100.00
72038;BME280;59900;50.788;12.904;2024-03-07T04:47:52;98075.84;;;3.73;100.00
72038;BME280;59900;50.788;12.904;2024-03-07T04:50:17;98078.47;;;3.73;100.00
72038;BME280;59900;50.788;12.904;2024-03-07T04:52:42;98085.16;;;3.76;100.00
72038;BME280;59900;50.788;12.904;2024-03-07T04:55:09;98082.03;;;3.72;100.00
72038;BME280;59900;50.788;12.904;2024-03-07T04:57:38;98078.19;;;3.76;100.00
72038;BME280;59900;50.788;12.904;2024-03-07T05:00:07;98084.75;;;3.80;100.00
72038;BME280;59900;50.788;12.904;2024-03-07T05:02:32;98079.28;;;3.83;100.00
72038;BME280;59900;50.788;12.904;2024-03-07T05:04:57;98081.72;;;3.85;100.00
72038;BME280;59900;50.788;12.904;2024-03-07T05:07:22;98081.31;;;3.89;100.00
72038;BME280;59900;50.788;12.904;2024-03-07T05:09:48;98086.50;;;3.89;100.00
72038;BME280;59900;50.788;12.904;2024-03-07T05:12:13;98079.53;;;3.90;100.00
72038;BME280;59900;50.788;12.904;2024-03-07T05:14:39;98078.44;;;3.92;100.00
72038;BME280;59900;50.788;12.904;2024-03-07T05:17:04;98073.06;;;3.94;100.00
72038;BME280;59900;50.788;12.904;2024-03-07T05:19:34;98076.50;;;3.94;100.00
72038;BME280;59900;50.788;12.904;2024-03-07T05:22:00;98079.91;;;3.95;100.00
72038;BME280;59900;50.788;12.904;2024-03-07T05:24:26;98081.56;;;3.96;100.00
72038;BME280;59900;50.788;12.904;2024-03-07T05:26:51;98079.91;;;3.95;100.00
72038;BME280;59900;50.788;12.904;2024-03-07T05:29:18;98089.09;;;3.99;100.00
72038;BME280;59900;50.788;12.904;2024-03-07T05:31:44;98083.72;;;4.01;100.00
72038;BME280;59900;50.788;12.904;2024-03-07T05:34:12;98089.59;;;4.03;100.00
72038;BME280;59900;50.788;12.904;2024-03-07T05:36:37;98081.00;;;4.02;100.00
72038;BME280;59900;50.788;12.904;2024-03-07T05:39:10;98084.28;;;4.04;100.00
72038;BME280;59900;50.788;12.904;2024-03-07T05:41:39;98079.63;;;4.08;100.00
72038;BME280;59900;50.788;12.904;2024-03-07T05:44:06;98073.59;;;4.07;100.00
72038;BME280;59900;50.788;12.904;2024-03-07T05:46:35;98083.84;;;4.09;100.00
72038;BME280;59900;50.788;12.904;2024-03-07T05:49:00;98080.13;;;4.11;100.00
72038;BME280;59900;50.788;12.904;2024-03-07T05:51:26;98085.06;;;4.14;100.00
72038;BME280;59900;50.788;12.904;2024-03-07T05:53:51;98081.50;;;4.15;100.00
72038;BME280;59900;50.788;12.904;2024-03-07T05:56:16;98086.84;;;4.14;100.00
72038;BME280;59900;50.788;12.904;2024-03-07T05:58:41;98083.44;;;4.13;100.00
72038;BME280;59900;50.788;12.904;2024-03-07T06:01:07;98082.16;;;4.17;100.00
72038;BME280;59900;50.788;12.904;2024-03-07T06:03:33;98083.16;;;4.16;100.00
72038;BME280;59900;50.788;12.904;2024-03-07T06:05:58;98089.00;;;4.18;100.00
72038;BME280;59900;50.788;12.904;2024-03-07T06:08:24;98082.88;;;4.19;100.00
72038;BME280;59900;50.788;12.904;2024-03-07T06:10:49;98091.34;;;4.21;100.00
72038;BME280;59900;50.788;12.904;2024-03-07T06:13:16;98087.91;;;4.21;100.00
72038;BME280;59900;50.788;12.904;2024-03-07T06:15:46;98089.00;;;4.18;100.00
72038;BME280;59900;50.788;12.904;2024-03-07T06:18:12;98086.41;;;4.18;100.00
72038;BME280;59900;50.788;12.904;2024-03-07T06:20:42;98089.19;;;4.17;100.00
72038;BME280;59900;50.788;12.904;2024-03-07T06:23:07;98089.31;;;4.15;100.00
72038;BME280;59900;50.788;12.904;2024-03-07T06:25:33;98089.00;;;4.18;100.00
72038;BME280;59900;50.788;12.904;2024-03-07T06:28:02;98085.47;;;4.19;100.00
72038;BME280;59900;50.788;12.904;2024-03-07T06:30:40;98092.56;;;4.17;100.00
72038;BME280;59900;50.788;12.904;2024-03-07T06:33:06;98088.06;;;4.19;100.00
72038;BME280;59900;50.788;12.904;2024-03-07T06:35:32;98092.97;;;4.22;100.00
72038;BME280;59900;50.788;12.904;2024-03-07T06:37:57;98094.31;;;4.26;99.25
72038;BME280;59900;50.788;12.904;2024-03-07T06:40:22;98092.69;;;4.25;98.17
72038;BME280;59900;50.788;12.904;2024-03-07T06:42:48;98101.59;;;4.23;96.86
72038;BME280;59900;50.788;12.904;2024-03-07T06:45:14;98092.81;;;4.24;96.44
72038;BME280;59900;50.788;12.904;2024-03-07T06:47:39;98095.59;;;4.22;95.78
72038;BME280;59900;50.788;12.904;2024-03-07T06:50:04;98101.19;;;4.18;94.58
72038;BME280;59900;50.788;12.904;2024-03-07T06:52:33;98097.78;;;4.17;94.57
72038;BME280;59900;50.788;12.904;2024-03-07T06:54:59;98095.16;;;4.17;93.64
72038;BME280;59900;50.788;12.904;2024-03-07T06:57:24;98107.22;;;4.18;93.82
72038;BME280;59900;50.788;12.904;2024-03-07T06:59:49;98100.38;;;4.17;92.99
72038;BME280;59900;50.788;12.904;2024-03-07T07:02:14;98102.69;;;4.20;92.82
72038;BME280;59900;50.788;12.904;2024-03-07T07:04:40;98111.19;;;4.22;92.72
72038;BME280;59900;50.788;12.904;2024-03-07T07:07:09;98105.72;;;4.25;92.59
72038;BME280;59900;50.788;12.904;2024-03-07T07:09:38;98111.56;;;4.27;91.55
72038;BME280;59900;50.788;12.904;2024-03-07T07:12:03;98115.66;;;4.30;91.16
72038;BME280;59900;50.788;12.904;2024-03-07T07:14:29;98113.31;;;4.36;91.38
72038;BME280;59900;50.788;12.904;2024-03-07T07:16:54;98108.94;;;4.37;90.05
72038;BME280;59900;50.788;12.904;2024-03-07T07:19:21;98118.91;;;4.41;90.17
72038;BME280;59900;50.788;12.904;2024-03-07T07:21:46;98113.44;;;4.44;89.21
72038;BME280;59900;50.788;12.904;2024-03-07T07:24:12;98103.56;;;4.48;89.09
72038;BME280;59900;50.788;12.904;2024-03-07T07:26:38;98116.97;;;4.43;87.68
72038;BME280;59900;50.788;12.904;2024-03-07T07:29:04;98117.97;;;4.42;87.84
72038;BME280;59900;50.788;12.904;2024-03-07T07:31:29;98124.66;;;4.45;88.04
72038;BME280;59900;50.788;12.904;2024-03-07T07:33:57;98113.00;;;4.49;88.67
72038;BME280;59900;50.788;12.904;2024-03-07T07:36:22;98121.63;;;4.49;87.17
72038;BME280;59900;50.788;12.904;2024-03-07T07:38:47;98121.31;;;4.52;87.58
72038;BME280;59900;50.788;12.904;2024-03-07T07:41:13;98117.63;;;4.55;86.52
72038;BME280;59900;50.788;12.904;2024-03-07T07:43:39;98114.31;;;4.63;87.11
72038;BME280;59900;50.788;12.904;2024-03-07T07:46:05;98103.44;;;4.67;85.80
72038;BME280;59900;50.788;12.904;2024-03-07T07:48:30;98109.63;;;4.66;84.58
72038;BME280;59900;50.788;12.904;2024-03-07T07:50:55;98110.22;;;4.60;82.81
72038;BME280;59900;50.788;12.904;2024-03-07T07:53:20;98108.44;;;4.61;83.09
72038;BME280;59900;50.788;12.904;2024-03-07T07:55:46;98107.59;;;4.60;82.59
72038;BME280;59900;50.788;12.904;2024-03-07T07:58:11;98099.81;;;4.60;82.68
72038;BME280;59900;50.788;12.904;2024-03-07T08:00:37;98100.91;;;4.58;82.20
72038;BME280;59900;50.788;12.904;2024-03-07T08:03:04;98101.91;;;4.47;81.12
72038;BME280;59900;50.788;12.904;2024-03-07T08:05:32;98106.72;;;4.42;81.26
72038;BME280;59900;50.788;12.904;2024-03-07T08:08:03;98103.31;;;4.41;80.98
72038;BME280;59900;50.788;12.904;2024-03-07T08:10:30;98102.91;;;4.36;80.94
72038;BME280;59900;50.788;12.904;2024-03-07T08:12:59;98105.22;;;4.39;81.56
72038;BME280;59900;50.788;12.904;2024-03-07T08:15:25;98110.81;;;4.44;81.68
72038;BME280;59900;50.788;12.904;2024-03-07T08:17:51;98106.72;;;4.42;81.04
72038;BME280;59900;50.788;12.904;2024-03-07T08:20:18;98109.63;;;4.39;80.23
72038;BME280;59900;50.788;12.904;2024-03-07T08:22:46;98108.50;;;4.41;80.97
72038;BME280;59900;50.788;12.904;2024-03-07T08:25:15;98123.00;;;4.44;81.16
72038;BME280;59900;50.788;12.904;2024-03-07T08:27:42;98121.91;;;4.46;80.91
72038;BME280;59900;50.788;12.904;2024-03-07T08:30:09;98110.53;;;4.47;80.33
72038;BME280;59900;50.788;12.904;2024-03-07T08:32:39;98112.75;;;4.42;80.83
72038;BME280;59900;50.788;12.904;2024-03-07T08:35:04;98107.56;;;4.42;81.21
72038;BME280;59900;50.788;12.904;2024-03-07T08:37:33;98107.97;;;4.38;81.30
72038;BME280;59900;50.788;12.904;2024-03-07T08:39:59;98114.00;;;4.38;81.60
72038;BME280;59900;50.788;12.904;2024-03-07T08:42:24;98107.00;;;4.39;81.36
72038;BME280;59900;50.788;12.904;2024-03-07T08:44:49;98106.56;;;4.43;81.48
72038;BME280;59900;50.788;12.904;2024-03-07T08:47:14;98104.66;;;4.45;80.89
72038;BME280;59900;50.788;12.904;2024-03-07T08:49:40;98103.69;;;4.46;81.27
72038;BME280;59900;50.788;12.904;2024-03-07T08:52:05;98108.19;;;4.54;80.62
72038;BME280;59900;50.788;12.904;2024-03-07T08:54:31;98101.00;;;4.66;80.56
72038;BME280;59900;50.788;12.904;2024-03-07T08:56:57;98103.97;;;4.71;79.54
72038;BME280;59900;50.788;12.904;2024-03-07T08:59:22;98107.94;;;4.75;78.71
72038;BME280;59900;50.788;12.904;2024-03-07T09:01:47;98113.81;;;4.77;77.32
72038;BME280;59900;50.788;12.904;2024-03-07T09:04:13;98111.22;;;4.77;75.75
72038;BME280;59900;50.788;12.904;2024-03-07T09:06:39;98108.03;;;4.83;76.59
72038;BME280;59900;50.788;12.904;2024-03-07T09:09:05;98104.59;;;4.82;74.98
72038;BME280;59900;50.788;12.904;2024-03-07T09:11:33;98108.84;;;4.83;73.87
72038;BME280;59900;50.788;12.904;2024-03-07T09:13:59;98106.91;;;4.85;72.79
72038;BME280;59900;50.788;12.904;2024-03-07T09:16:24;98107.44;;;4.89;71.26
72038;BME280;59900;50.788;12.904;2024-03-07T09:18:49;98112.06;;;4.95;70.92
72038;BME280;59900;50.788;12.904;2024-03-07T09:21:14;98107.97;;;4.92;66.78
72038;BME280;59900;50.788;12.904;2024-03-07T09:23:40;98108.09;;;4.91;67.43
72038;BME280;59900;50.788;12.904;2024-03-07T09:26:06;98115.91;;;4.91;67.93
72038;BME280;59900;50.788;12.904;2024-03-07T09:28:32;98099.19;;;4.93;67.57
72038;BME280;59900;50.788;12.904;2024-03-07T09:30:57;98103.31;;;4.96;68.14
72038;BME280;59900;50.788;12.904;2024-03-07T09:33:22;98106.69;;;4.96;68.51
72038;BME280;59900;50.788;12.904;2024-03-07T09:35:48;98109.00;;;4.99;67.56
72038;BME280;59900;50.788;12.904;2024-03-07T09:38:13;98108.22;;;4.99;66.63
72038;BME280;59900;50.788;12.904;2024-03-07T09:40:38;98115.06;;;5.00;67.11
72038;BME280;59900;50.788;12.904;2024-03-07T09:43:04;98115.06;;;5.00;66.83
72038;BME280;59900;50.788;12.904;2024-03-07T09:45:31;98106.69;;;4.96;66.56
72038;BME280;59900;50.788;12.904;2024-03-07T09:47:57;98101.50;;;4.96;66.91
72038;BME280;59900;50.788;12.904;2024-03-07T09:50:23;98108.50;;;4.96;66.57
72038;BME280;59900;50.788;12.904;2024-03-07T09:52:52;98114.00;;;4.93;64.81
72038;BME280;59900;50.788;12.904;2024-03-07T09:55:18;98115.34;;;4.97;66.81
72038;BME280;59900;50.788;12.904;2024-03-07T09:57:47;98111.63;;;4.99;64.11
72038;BME280;59900;50.788;12.904;2024-03-07T10:00:16;98114.91;;;5.01;64.38
72038;BME280;59900;50.788;12.904;2024-03-07T10:02:50;98111.03;;;5.05;66.62
72038;BME280;59900;50.788;12.904;2024-03-07T10:05:18;98110.75;;;5.08;66.09
72038;BME280;59900;50.788;12.904;2024-03-07T10:07:45;98108.00;;;5.10;66.04
72038;BME280;59900;50.788;12.904;2024-03-07T10:10:10;98108.66;;;5.12;65.46
72038;BME280;59900;50.788;12.904;2024-03-07T10:12:38;98113.06;;;5.12;66.88
72038;BME280;59900;50.788;12.904;2024-03-07T10:15:04;98111.44;;;5.11;66.13
72038;BME280;59900;50.788;12.904;2024-03-07T10:17:30;98106.72;;;5.14;67.10
72038;BME280;59900;50.788;12.904;2024-03-07T10:19:58;98095.50;;;5.14;66.65
72038;BME280;59900;50.788;12.904;2024-03-07T10:22:25;98103.75;;;5.09;65.03
72038;BME280;59900;50.788;12.904;2024-03-07T10:24:52;98107.03;;;5.11;65.78
72038;BME280;59900;50.788;12.904;2024-03-07T10:27:19;98103.97;;;5.16;65.79
72038;BME280;59900;50.788;12.904;2024-03-07T10:29:47;98104.50;;;5.19;66.24
72038;BME280;59900;50.788;12.904;2024-03-07T10:32:13;98103.63;;;5.28;66.22
72038;BME280;59900;50.788;12.904;2024-03-07T10:34:38;98102.81;;;5.28;63.98
72038;BME280;59900;50.788;12.904;2024-03-07T10:37:04;98101.09;;;5.36;64.10
72038;BME280;59900;50.788;12.904;2024-03-07T10:39:30;98093.28;;;5.36;63.04
72038;BME280;59900;50.788;12.904;2024-03-07T10:42:00;98090.50;;;5.38;62.22
72038;BME280;59900;50.788;12.904;2024-03-07T10:44:30;98088.94;;;5.45;62.98
72038;BME280;59900;50.788;12.904;2024-03-07T10:46:56;98091.47;;;5.54;63.84
72038;BME280;59900;50.788;12.904;2024-03-07T10:49:25;98098.53;;;5.62;64.01
72038;BME280;59900;50.788;12.904;2024-03-07T10:52:10;98092.94;;;5.75;64.12
72038;BME280;59900;50.788;12.904;2024-03-07T10:54:48;98088.06;;;5.80;63.72
72038;BME280;59900;50.788;12.904;2024-03-07T10:57:23;98086.59;;;5.77;62.48
72038;BME280;59900;50.788;12.904;2024-03-07T10:59:56;98096.19;;;5.77;63.38
72038;BME280;59900;50.788;12.904;2024-03-07T11:04:50;98093.75;;;5.75;63.22
72038;BME280;59900;50.788;12.904;2024-03-07T11:07:17;98092.97;;;5.83;62.58
72038;BME280;59900;50.788;12.904;2024-03-07T11:09:43;98090.22;;;5.84;62.19
72038;BME280;59900;50.788;12.904;2024-03-07T11:12:11;98085.00;;;5.84;62.63
72038;BME280;59900;50.788;12.904;2024-03-07T11:14:37;98093.22;;;5.89;62.90
72038;BME280;59900;50.788;12.904;2024-03-07T11:17:03;98079.41;;;5.79;61.25
72038;BME280;59900;50.788;12.904;2024-03-07T11:19:31;98092.75;;;5.76;62.42
72038;BME280;59900;50.788;12.904;2024-03-07T11:21:57;98084.19;;;5.84;62.88
72038;BME280;59900;50.788;12.904;2024-03-07T11:24:28;98087.72;;;5.92;61.93
72038;BME280;59900;50.788;12.904;2024-03-07T11:26:58;98084.94;;;5.94;61.98
72038;BME280;59900;50.788;12.904;2024-03-07T11:29:48;98084.19;;;5.84;61.93
72038;BME280;59900;50.788;12.904;2024-03-07T11:32:18;98081.97;;;5.89;63.00
72038;BME280;59900;50.788;12.904;2024-03-07T11:34:47;98077.88;;;5.86;63.43
72038;BME280;59900;50.788;12.904;2024-03-07T11:37:19;98087.53;;;5.94;62.64
72038;BME280;59900;50.788;12.904;2024-03-07T11:39:48;98084.97;;;6.02;63.46
72038;BME280;59900;50.788;12.904;2024-03-07T11:42:31;98079.28;;;5.98;62.17
72038;BME280;59900;50.788;12.904;2024-03-07T11:45:00;98081.19;;;5.96;62.27
72038;BME280;59900;50.788;12.904;2024-03-07T11:47:35;98084.78;;;5.95;62.23
72038;BME280;59900;50.788;12.904;2024-03-07T11:50:03;98075.53;;;6.01;61.77
72038;BME280;59900;50.788;12.904;2024-03-07T11:52:33;98069.19;;;6.03;61.86
72038;BME280;59900;50.788;12.904;2024-03-07T11:55:01;98063.66;;;6.06;61.90
72038;BME280;59900;50.788;12.904;2024-03-07T11:57:30;98057.47;;;6.07;61.42
72038;BME280;59900;50.788;12.904;2024-03-07T11:59:58;98056.34;;;6.10;61.55
72038;BME280;59900;50.788;12.904;2024-03-07T12:02:26;98061.19;;;6.05;60.92
72038;BME280;59900;50.788;12.904;2024-03-07T12:04:51;98061.34;;;6.03;61.85
72038;BME280;59900;50.788;12.904;2024-03-07T12:07:18;98055.19;;;6.04;62.72
72038;BME280;59900;50.788;12.904;2024-03-07T12:09:44;98058.66;;;6.13;62.13
72038;BME280;59900;50.788;12.904;2024-03-07T12:12:16;98051.47;;;6.15;61.39
72038;BME280;59900;50.788;12.904;2024-03-07T12:14:42;98054.72;;;6.17;62.19
72038;BME280;59900;50.788;12.904;2024-03-07T12:17:07;98049.88;;;6.22;62.05
72038;BME280;59900;50.788;12.904;2024-03-07T12:19:33;98042.22;;;6.29;60.87
72038;BME280;59900;50.788;12.904;2024-03-07T12:22:02;98041.50;;;6.44;61.74
72038;BME280;59900;50.788;12.904;2024-03-07T12:24:28;98043.63;;;6.49;59.54
72038;BME280;59900;50.788;12.904;2024-03-07T12:27:04;98046.09;;;6.50;60.21
72038;BME280;59900;50.788;12.904;2024-03-07T12:29:30;98044.28;;;6.51;59.46
72038;BME280;59900;50.788;12.904;2024-03-07T12:31:55;98046.22;;;6.49;58.78
72038;BME280;59900;50.788;12.904;2024-03-07T12:34:21;98036.16;;;6.54;59.61
72038;BME280;59900;50.788;12.904;2024-03-07T12:36:46;98035.63;;;6.50;59.64
72038;BME280;59900;50.788;12.904;2024-03-07T12:39:34;98032.22;;;6.58;59.47
72038;BME280;59900;50.788;12.904;2024-03-07T12:42:20;98033.59;;;6.78;60.49
72038;BME280;59900;50.788;12.904;2024-03-07T12:44:46;98030.03;;;6.95;58.66
72038;BME280;59900;50.788;12.904;2024-03-07T12:47:12;98035.28;;;7.19;59.33
72038;BME280;59900;50.788;12.904;2024-03-07T12:49:39;98026.97;;;7.24;57.53
72038;BME280;59900;50.788;12.904;2024-03-07T12:52:05;98027.63;;;7.18;57.98
72038;BME280;59900;50.788;12.904;2024-03-07T12:54:31;98028.25;;;7.20;57.17
72038;BME280;59900;50.788;12.904;2024-03-07T12:56:56;98015.88;;;7.22;56.90